• Join FlightAware (Why Join?)
  • Login
  • US Flag 
02:11PM EDT


 

Airport Tracker/Info


-or-


 

Live Flight TrackerFlight Track Log ✈ CTL78 ✈ 12-Jul-2013 ✈ KYIP - KBKL

Flight Track Log - Related Links

Times and Time Zones

All times are in EDT time to prevent confusion due to time zone crossing. See the CTL78 flight status page for this flight to view local times or setup timezone preferences in your user account.

Time Position Orientation Groundspeed Altitude Reporting Facility
EDT Latitude Longitude Course Direction KTS MPH feet Rate Location/Type
05:42PM 42.2650 -83.5714 298° West 116 133 2,300  Level Cleveland Center
05:43PM 42.2461 -83.5761 190° South 122 140 3,400 900 Climbing Cleveland Center
05:44PM 42.2306 -83.5306 115° Southeast 119 137 4,400 780 Climbing Cleveland Center
05:46PM 42.2150 -83.4906 118° Southeast 132 152 5,100 300 Climbing Cleveland Center
05:47PM 42.1284 -83.2393 101° East  Level Estimated
05:47PM 42.1894 -83.4222 117° Southeast 169 194 5,100  Level Cleveland Center
05:48PM 42.1700 -83.3736 118° Southeast 169 194 5,000 -60 Descending Cleveland Center
05:49PM 42.1525 -83.3197 114° Southeast 167 192 5,000  Level Cleveland Center
05:50PM 42.1308 -83.2628 117° Southeast 167 192 5,000  Level Cleveland Center
05:51PM 42.1114 -83.2086 116° Southeast 164 189 5,000  Level Cleveland Center
05:52PM 42.0894 -83.1575 120° Southeast 163 188 5,000  Level Cleveland Center
05:53PM 42.0678 -83.1006 117° Southeast 160 184 5,000  Level Cleveland Center
05:54PM 42.0483 -83.0411 114° Southeast 162 186 5,000  Level Cleveland Center
05:55PM 42.0264 -82.9900 120° Southeast 163 188 5,100  Climbing Cleveland Center
05:56PM 42.0025 -82.9386 122° Southeast 162 186 5,000  Descending Cleveland Center
05:57PM 41.9847 -82.8878 115° Southeast 161 185 5,200  Climbing Cleveland Center
05:58PM 41.9628 -82.8367 120° Southeast 161 185 5,100 -120 Descending Cleveland Center
05:58PM 41.9531 -82.8083 115° Southeast 163 188 5,100  Level Cleveland Center
05:59PM 41.9289 -82.7517 120° Southeast 163 188 5,100  Level Cleveland Center
06:00PM 41.9072 -82.6981 118° Southeast 159 183 5,100  Level Cleveland Center
06:01PM 41.8914 -82.6444 112° Southeast 162 186 5,100  Level Cleveland Center
06:02PM 41.8694 -82.5908 119° Southeast 160 184 5,100  Level Cleveland Center
06:03PM 41.8453 -82.5317 119° Southeast 170 196 5,100  Level Cleveland Center
06:04PM 41.8233 -82.4808 120° Southeast 157 181 5,100  Level Cleveland Center
06:05PM 41.8033 -82.4244 115° Southeast 165 190 5,100  Level Cleveland Center
06:06PM 41.7814 -82.3708 119° Southeast 163 188 5,100  Level Cleveland Center
06:07PM 41.7592 -82.3200 120° Southeast 162 186 5,100 -120 Level Cleveland Center
06:08PM 41.7414 -82.2639 113° Southeast 161 185 4,900 -300 Descending Cleveland Center
06:09PM 41.7128 -82.2047 123° Southeast 174 200 4,600 -420 Descending Cleveland Center
06:10PM 41.6950 -82.1542 115° Southeast 172 198 4,200 -480 Descending Cleveland Center
06:11PM 41.6728 -82.0981 118° Southeast 176 203 3,700 -600 Descending Cleveland Center
06:12PM 41.6464 -82.0392 121° Southeast 175 201 3,100 -480 Descending Cleveland Center
06:13PM 41.6219 -81.9803 119° Southeast 169 194 2,700 -420 Descending Cleveland Center
06:14PM 41.5978 -81.9269 121° Southeast 167 192 2,300 -360 Descending Cleveland Center
06:15PM 41.5733 -81.8767 123° Southeast 160 184 2,000 -240 Descending Cleveland Center
06:16PM 41.5467 -81.8206 122° Southeast 154 177 1,900 -180 Descending Cleveland Center
06:18PM 41.5264 -81.7703 118° Southeast 149 171 1,700 -180 Descending Cleveland Center